sensor_id;sensor_type;location;lat;lon;timestamp;P1;durP1;ratioP1;P2;durP2;ratioP2
5890;SDS011;2971;52.420;7.080;2023-07-24T00:02:23;4.63;;;4.10;;
5890;SDS011;2971;52.420;7.080;2023-07-24T00:04:48;5.03;;;4.53;;
5890;SDS011;2971;52.420;7.080;2023-07-24T00:07:13;4.67;;;4.20;;
5890;SDS011;2971;52.420;7.080;2023-07-24T00:09:39;4.40;;;4.00;;
5890;SDS011;2971;52.420;7.080;2023-07-24T00:12:04;4.60;;;4.20;;
5890;SDS011;2971;52.420;7.080;2023-07-24T00:14:29;4.83;;;4.33;;
5890;SDS011;2971;52.420;7.080;2023-07-24T00:16:55;4.67;;;4.27;;
5890;SDS011;2971;52.420;7.080;2023-07-24T00:19:20;5.53;;;4.23;;
5890;SDS011;2971;52.420;7.080;2023-07-24T00:21:45;4.93;;;4.53;;
5890;SDS011;2971;52.420;7.080;2023-07-24T00:24:10;5.10;;;4.63;;
5890;SDS011;2971;52.420;7.080;2023-07-24T00:26:36;5.33;;;4.83;;
5890;SDS011;2971;52.420;7.080;2023-07-24T00:29:01;6.37;;;4.67;;
5890;SDS011;2971;52.420;7.080;2023-07-24T00:31:26;5.57;;;4.43;;
5890;SDS011;2971;52.420;7.080;2023-07-24T00:33:53;4.57;;;4.17;;
5890;SDS011;2971;52.420;7.080;2023-07-24T00:36:18;4.67;;;4.07;;
5890;SDS011;2971;52.420;7.080;2023-07-24T00:38:43;4.20;;;3.80;;
5890;SDS011;2971;52.420;7.080;2023-07-24T00:41:09;4.20;;;3.80;;
5890;SDS011;2971;52.420;7.080;2023-07-24T00:43:34;4.00;;;3.60;;
5890;SDS011;2971;52.420;7.080;2023-07-24T00:45:59;4.07;;;3.77;;
5890;SDS011;2971;52.420;7.080;2023-07-24T00:48:25;3.97;;;3.67;;
5890;SDS011;2971;52.420;7.080;2023-07-24T00:50:50;4.57;;;4.17;;
5890;SDS011;2971;52.420;7.080;2023-07-24T00:53:15;3.83;;;3.53;;
5890;SDS011;2971;52.420;7.080;2023-07-24T00:55:42;4.17;;;3.77;;
5890;SDS011;2971;52.420;7.080;2023-07-24T00:58:08;4.03;;;3.73;;
5890;SDS011;2971;52.420;7.080;2023-07-24T01:00:35;3.97;;;3.57;;
5890;SDS011;2971;52.420;7.080;2023-07-24T01:03:01;4.33;;;3.93;;
5890;SDS011;2971;52.420;7.080;2023-07-24T01:05:26;4.60;;;4.03;;
5890;SDS011;2971;52.420;7.080;2023-07-24T01:07:52;6.00;;;4.23;;
5890;SDS011;2971;52.420;7.080;2023-07-24T01:10:17;4.43;;;4.03;;
5890;SDS011;2971;52.420;7.080;2023-07-24T01:13:28;4.30;;;4.00;;
5890;SDS011;2971;52.420;7.080;2023-07-24T01:15:30;4.20;;;3.80;;
5890;SDS011;2971;52.420;7.080;2023-07-24T01:18:01;4.30;;;3.83;;
5890;SDS011;2971;52.420;7.080;2023-07-24T01:20:28;4.97;;;4.43;;
5890;SDS011;2971;52.420;7.080;2023-07-24T01:27:47;5.70;;;5.20;;
5890;SDS011;2971;52.420;7.080;2023-07-24T01:30:13;6.23;;;5.33;;
5890;SDS011;2971;52.420;7.080;2023-07-24T01:32:39;5.40;;;4.90;;
5890;SDS011;2971;52.420;7.080;2023-07-24T01:35:04;5.77;;;5.27;;
5890;SDS011;2971;52.420;7.080;2023-07-24T01:37:30;6.37;;;5.87;;
5890;SDS011;2971;52.420;7.080;2023-07-24T01:39:55;6.67;;;6.07;;
5890;SDS011;2971;52.420;7.080;2023-07-24T01:42:21;6.80;;;6.20;;
5890;SDS011;2971;52.420;7.080;2023-07-24T01:44:53;7.10;;;6.60;;
5890;SDS011;2971;52.420;7.080;2023-07-24T01:47:19;7.87;;;7.03;;
5890;SDS011;2971;52.420;7.080;2023-07-24T01:49:44;7.93;;;7.13;;
5890;SDS011;2971;52.420;7.080;2023-07-24T01:52:09;7.53;;;6.80;;
5890;SDS011;2971;52.420;7.080;2023-07-24T01:54:35;7.30;;;6.60;;
5890;SDS011;2971;52.420;7.080;2023-07-24T01:57:00;7.00;;;6.30;;
5890;SDS011;2971;52.420;7.080;2023-07-24T01:59:26;7.47;;;6.77;;
5890;SDS011;2971;52.420;7.080;2023-07-24T02:01:51;7.30;;;6.67;;
5890;SDS011;2971;52.420;7.080;2023-07-24T02:04:16;7.20;;;6.60;;
5890;SDS011;2971;52.420;7.080;2023-07-24T02:06:42;7.93;;;7.23;;
5890;SDS011;2971;52.420;7.080;2023-07-24T02:09:07;8.27;;;7.63;;
5890;SDS011;2971;52.420;7.080;2023-07-24T02:11:32;8.33;;;7.53;;
5890;SDS011;2971;52.420;7.080;2023-07-24T02:13:57;8.20;;;7.50;;
5890;SDS011;2971;52.420;7.080;2023-07-24T02:16:24;8.27;;;7.57;;
5890;SDS011;2971;52.420;7.080;2023-07-24T02:18:50;8.80;;;8.00;;
5890;SDS011;2971;52.420;7.080;2023-07-24T02:21:15;8.67;;;7.80;;
5890;SDS011;2971;52.420;7.080;2023-07-24T02:23:40;9.00;;;8.20;;
5890;SDS011;2971;52.420;7.080;2023-07-24T02:26:05;8.83;;;8.07;;
5890;SDS011;2971;52.420;7.080;2023-07-24T02:28:31;9.43;;;8.63;;
5890;SDS011;2971;52.420;7.080;2023-07-24T02:30:56;9.27;;;8.37;;
5890;SDS011;2971;52.420;7.080;2023-07-24T02:33:22;9.07;;;8.27;;
5890;SDS011;2971;52.420;7.080;2023-07-24T02:35:49;9.70;;;8.70;;
5890;SDS011;2971;52.420;7.080;2023-07-24T02:38:14;9.37;;;8.43;;
5890;SDS011;2971;52.420;7.080;2023-07-24T02:40:40;9.43;;;8.57;;
5890;SDS011;2971;52.420;7.080;2023-07-24T02:43:05;9.13;;;8.27;;
5890;SDS011;2971;52.420;7.080;2023-07-24T02:45:33;9.43;;;8.53;;
5890;SDS011;2971;52.420;7.080;2023-07-24T02:47:58;9.37;;;8.57;;
5890;SDS011;2971;52.420;7.080;2023-07-24T02:50:25;10.07;;;9.20;;
5890;SDS011;2971;52.420;7.080;2023-07-24T02:52:50;8.70;;;7.90;;
5890;SDS011;2971;52.420;7.080;2023-07-24T02:55:15;8.70;;;8.00;;
5890;SDS011;2971;52.420;7.080;2023-07-24T02:57:41;8.27;;;7.50;;
5890;SDS011;2971;52.420;7.080;2023-07-24T03:00:06;8.73;;;8.00;;
5890;SDS011;2971;52.420;7.080;2023-07-24T03:02:31;8.33;;;7.47;;
5890;SDS011;2971;52.420;7.080;2023-07-24T03:04:57;8.03;;;7.33;;
5890;SDS011;2971;52.420;7.080;2023-07-24T03:07:22;9.10;;;8.20;;
5890;SDS011;2971;52.420;7.080;2023-07-24T03:09:47;8.13;;;7.43;;
5890;SDS011;2971;52.420;7.080;2023-07-24T03:12:13;8.27;;;7.47;;
5890;SDS011;2971;52.420;7.080;2023-07-24T03:14:38;8.30;;;7.50;;
5890;SDS011;2971;52.420;7.080;2023-07-24T03:17:03;7.40;;;6.80;;
5890;SDS011;2971;52.420;7.080;2023-07-24T03:19:28;9.10;;;8.30;;
5890;SDS011;2971;52.420;7.080;2023-07-24T03:21:54;8.23;;;7.40;;
5890;SDS011;2971;52.420;7.080;2023-07-24T03:24:19;8.37;;;7.67;;
5890;SDS011;2971;52.420;7.080;2023-07-24T03:26:44;8.17;;;7.47;;
5890;SDS011;2971;52.420;7.080;2023-07-24T03:29:09;8.43;;;7.63;;
5890;SDS011;2971;52.420;7.080;2023-07-24T03:31:35;8.37;;;7.60;;
5890;SDS011;2971;52.420;7.080;2023-07-24T03:34:00;8.83;;;7.93;;
5890;SDS011;2971;52.420;7.080;2023-07-24T03:36:25;8.87;;;8.07;;
5890;SDS011;2971;52.420;7.080;2023-07-24T03:38:50;8.70;;;7.90;;
5890;SDS011;2971;52.420;7.080;2023-07-24T03:41:16;9.73;;;7.87;;
5890;SDS011;2971;52.420;7.080;2023-07-24T03:43:41;10.37;;;8.33;;
5890;SDS011;2971;52.420;7.080;2023-07-24T03:46:07;9.60;;;8.27;;
5890;SDS011;2971;52.420;7.080;2023-07-24T03:48:32;9.23;;;8.40;;
5890;SDS011;2971;52.420;7.080;2023-07-24T03:50:59;9.90;;;9.00;;
5890;SDS011;2971;52.420;7.080;2023-07-24T03:53:25;9.20;;;8.37;;
5890;SDS011;2971;52.420;7.080;2023-07-24T03:55:50;9.37;;;8.47;;
5890;SDS011;2971;52.420;7.080;2023-07-24T03:58:15;9.80;;;8.90;;
5890;SDS011;2971;52.420;7.080;2023-07-24T04:00:41;9.90;;;8.90;;
5890;SDS011;2971;52.420;7.080;2023-07-24T04:03:06;9.57;;;8.67;;
5890;SDS011;2971;52.420;7.080;2023-07-24T04:05:31;10.23;;;9.23;;
5890;SDS011;2971;52.420;7.080;2023-07-24T04:07:57;10.80;;;9.80;;
5890;SDS011;2971;52.420;7.080;2023-07-24T04:10:22;11.27;;;10.30;;
5890;SDS011;2971;52.420;7.080;2023-07-24T04:12:47;11.20;;;10.20;;
5890;SDS011;2971;52.420;7.080;2023-07-24T04:15:12;10.70;;;9.70;;
5890;SDS011;2971;52.420;7.080;2023-07-24T04:17:38;10.87;;;9.77;;
5890;SDS011;2971;52.420;7.080;2023-07-24T04:20:05;11.10;;;10.00;;
5890;SDS011;2971;52.420;7.080;2023-07-24T04:22:30;11.33;;;10.33;;
5890;SDS011;2971;52.420;7.080;2023-07-24T04:24:56;11.30;;;10.30;;
5890;SDS011;2971;52.420;7.080;2023-07-24T04:27:21;12.00;;;10.90;;
5890;SDS011;2971;52.420;7.080;2023-07-24T04:29:46;11.93;;;10.93;;
5890;SDS011;2971;52.420;7.080;2023-07-24T04:32:11;11.27;;;10.17;;
5890;SDS011;2971;52.420;7.080;2023-07-24T04:34:37;11.37;;;10.37;;
5890;SDS011;2971;52.420;7.080;2023-07-24T04:37:02;11.87;;;10.67;;
5890;SDS011;2971;52.420;7.080;2023-07-24T04:39:27;11.83;;;10.73;;
5890;SDS011;2971;52.420;7.080;2023-07-24T04:41:53;11.70;;;10.60;;
5890;SDS011;2971;52.420;7.080;2023-07-24T04:44:18;12.67;;;11.37;;
5890;SDS011;2971;52.420;7.080;2023-07-24T04:46:43;11.80;;;10.70;;
5890;SDS011;2971;52.420;7.080;2023-07-24T04:49:08;11.53;;;10.43;;
5890;SDS011;2971;52.420;7.080;2023-07-24T04:51:34;11.83;;;10.73;;
5890;SDS011;2971;52.420;7.080;2023-07-24T04:53:59;11.63;;;10.53;;
5890;SDS011;2971;52.420;7.080;2023-07-24T04:56:25;11.77;;;10.57;;
5890;SDS011;2971;52.420;7.080;2023-07-24T04:58:50;12.30;;;11.00;;
5890;SDS011;2971;52.420;7.080;2023-07-24T05:01:15;12.07;;;11.07;;
5890;SDS011;2971;52.420;7.080;2023-07-24T05:03:41;12.53;;;11.27;;
5890;SDS011;2971;52.420;7.080;2023-07-24T05:06:06;13.03;;;11.83;;
5890;SDS011;2971;52.420;7.080;2023-07-24T05:08:31;13.40;;;12.10;;
5890;SDS011;2971;52.420;7.080;2023-07-24T05:10:57;12.53;;;11.37;;
5890;SDS011;2971;52.420;7.080;2023-07-24T05:13:22;13.23;;;11.83;;
5890;SDS011;2971;52.420;7.080;2023-07-24T05:15:47;13.37;;;11.87;;
5890;SDS011;2971;52.420;7.080;2023-07-24T05:18:13;14.10;;;12.17;;
5890;SDS011;2971;52.420;7.080;2023-07-24T05:20:42;14.27;;;12.30;;
5890;SDS011;2971;52.420;7.080;2023-07-24T05:23:07;14.70;;;12.67;;
5890;SDS011;2971;52.420;7.080;2023-07-24T05:25:32;14.47;;;13.13;;
5890;SDS011;2971;52.420;7.080;2023-07-24T05:27:58;14.67;;;13.17;;
5890;SDS011;2971;52.420;7.080;2023-07-24T05:30:23;14.40;;;12.90;;
5890;SDS011;2971;52.420;7.080;2023-07-24T05:32:49;14.50;;;13.00;;
5890;SDS011;2971;52.420;7.080;2023-07-24T05:35:14;13.80;;;12.50;;
5890;SDS011;2971;52.420;7.080;2023-07-24T05:37:39;14.47;;;12.97;;
5890;SDS011;2971;52.420;7.080;2023-07-24T05:40:05;15.57;;;13.73;;
5890;SDS011;2971;52.420;7.080;2023-07-24T05:42:30;14.27;;;12.77;;
5890;SDS011;2971;52.420;7.080;2023-07-24T05:44:56;13.93;;;12.47;;
5890;SDS011;2971;52.420;7.080;2023-07-24T05:47:21;14.37;;;12.97;;
5890;SDS011;2971;52.420;7.080;2023-07-24T05:49:46;15.03;;;13.43;;
5890;SDS011;2971;52.420;7.080;2023-07-24T05:52:11;14.33;;;13.03;;
5890;SDS011;2971;52.420;7.080;2023-07-24T05:54:37;14.43;;;12.87;;
5890;SDS011;2971;52.420;7.080;2023-07-24T05:57:02;14.77;;;13.27;;
5890;SDS011;2971;52.420;7.080;2023-07-24T05:59:27;16.13;;;13.90;;
5890;SDS011;2971;52.420;7.080;2023-07-24T06:01:52;13.97;;;12.47;;
5890;SDS011;2971;52.420;7.080;2023-07-24T06:04:18;16.10;;;13.40;;
5890;SDS011;2971;52.420;7.080;2023-07-24T06:06:43;16.80;;;13.33;;
5890;SDS011;2971;52.420;7.080;2023-07-24T06:09:08;15.50;;;13.50;;
5890;SDS011;2971;52.420;7.080;2023-07-24T06:11:33;14.83;;;13.17;;
5890;SDS011;2971;52.420;7.080;2023-07-24T06:13:59;14.90;;;13.50;;
5890;SDS011;2971;52.420;7.080;2023-07-24T06:16:24;16.90;;;15.20;;
5890;SDS011;2971;52.420;7.080;2023-07-24T06:18:49;16.00;;;14.50;;
5890;SDS011;2971;52.420;7.080;2023-07-24T06:21:14;16.20;;;14.80;;
5890;SDS011;2971;52.420;7.080;2023-07-24T06:23:40;16.13;;;14.63;;
5890;SDS011;2971;52.420;7.080;2023-07-24T06:26:05;15.90;;;14.40;;
5890;SDS011;2971;52.420;7.080;2023-07-24T06:28:30;15.83;;;14.43;;
5890;SDS011;2971;52.420;7.080;2023-07-24T06:30:57;17.00;;;15.47;;
5890;SDS011;2971;52.420;7.080;2023-07-24T06:33:22;16.40;;;15.10;;
5890;SDS011;2971;52.420;7.080;2023-07-24T06:35:48;16.63;;;15.23;;
5890;SDS011;2971;52.420;7.080;2023-07-24T06:38:13;16.87;;;15.43;;
5890;SDS011;2971;52.420;7.080;2023-07-24T06:40:39;16.70;;;14.97;;
5890;SDS011;2971;52.420;7.080;2023-07-24T06:43:05;16.60;;;15.03;;
5890;SDS011;2971;52.420;7.080;2023-07-24T06:45:30;17.10;;;15.43;;
5890;SDS011;2971;52.420;7.080;2023-07-24T06:47:55;17.27;;;15.57;;
5890;SDS011;2971;52.420;7.080;2023-07-24T06:50:20;17.37;;;15.83;;
5890;SDS011;2971;52.420;7.080;2023-07-24T06:52:46;18.63;;;17.10;;
5890;SDS011;2971;52.420;7.080;2023-07-24T06:55:11;18.03;;;16.43;;
5890;SDS011;2971;52.420;7.080;2023-07-24T06:57:36;17.60;;;15.93;;
5890;SDS011;2971;52.420;7.080;2023-07-24T07:00:02;16.50;;;15.00;;
5890;SDS011;2971;52.420;7.080;2023-07-24T07:02:27;16.60;;;15.03;;
5890;SDS011;2971;52.420;7.080;2023-07-24T07:04:53;16.87;;;15.37;;
5890;SDS011;2971;52.420;7.080;2023-07-24T07:07:18;17.03;;;14.93;;
5890;SDS011;2971;52.420;7.080;2023-07-24T07:09:44;15.37;;;13.97;;
5890;SDS011;2971;52.420;7.080;2023-07-24T07:12:09;15.23;;;14.00;;
5890;SDS011;2971;52.420;7.080;2023-07-24T07:14:34;14.03;;;12.73;;
5890;SDS011;2971;52.420;7.080;2023-07-24T07:16:59;14.37;;;13.07;;
5890;SDS011;2971;52.420;7.080;2023-07-24T07:19:25;13.73;;;12.53;;
5890;SDS011;2971;52.420;7.080;2023-07-24T07:21:50;13.53;;;12.23;;
5890;SDS011;2971;52.420;7.080;2023-07-24T07:24:16;13.53;;;12.33;;
5890;SDS011;2971;52.420;7.080;2023-07-24T07:26:41;12.50;;;11.40;;
5890;SDS011;2971;52.420;7.080;2023-07-24T07:29:06;12.30;;;11.30;;
5890;SDS011;2971;52.420;7.080;2023-07-24T07:31:31;12.47;;;11.37;;
5890;SDS011;2971;52.420;7.080;2023-07-24T07:33:56;12.67;;;11.67;;
5890;SDS011;2971;52.420;7.080;2023-07-24T07:36:22;12.40;;;11.33;;
5890;SDS011;2971;52.420;7.080;2023-07-24T07:38:47;13.70;;;12.60;;
5890;SDS011;2971;52.420;7.080;2023-07-24T07:41:13;13.17;;;11.93;;
5890;SDS011;2971;52.420;7.080;2023-07-24T07:43:38;13.10;;;11.90;;
5890;SDS011;2971;52.420;7.080;2023-07-24T07:46:04;12.60;;;11.60;;
5890;SDS011;2971;52.420;7.080;2023-07-24T07:48:29;13.20;;;12.00;;
5890;SDS011;2971;52.420;7.080;2023-07-24T07:50:54;12.90;;;11.77;;
5890;SDS011;2971;52.420;7.080;2023-07-24T07:53:19;11.93;;;10.87;;
5890;SDS011;2971;52.420;7.080;2023-07-24T07:55:45;12.00;;;11.00;;
5890;SDS011;2971;52.420;7.080;2023-07-24T07:58:10;12.10;;;11.10;;
5890;SDS011;2971;52.420;7.080;2023-07-24T08:00:35;13.30;;;12.20;;
5890;SDS011;2971;52.420;7.080;2023-07-24T08:03:01;14.23;;;12.73;;
5890;SDS011;2971;52.420;7.080;2023-07-24T08:05:26;13.73;;;12.57;;
5890;SDS011;2971;52.420;7.080;2023-07-24T08:07:51;14.20;;;12.80;;
5890;SDS011;2971;52.420;7.080;2023-07-24T08:10:17;14.17;;;12.87;;
5890;SDS011;2971;52.420;7.080;2023-07-24T08:12:42;14.37;;;13.00;;
5890;SDS011;2971;52.420;7.080;2023-07-24T08:15:08;14.23;;;12.83;;
5890;SDS011;2971;52.420;7.080;2023-07-24T08:17:33;15.03;;;13.67;;
5890;SDS011;2971;52.420;7.080;2023-07-24T08:19:58;15.43;;;13.93;;
5890;SDS011;2971;52.420;7.080;2023-07-24T08:22:24;14.87;;;13.57;;
5890;SDS011;2971;52.420;7.080;2023-07-24T08:24:49;15.03;;;13.67;;
5890;SDS011;2971;52.420;7.080;2023-07-24T08:27:18;14.47;;;13.17;;
5890;SDS011;2971;52.420;7.080;2023-07-24T08:29:43;13.87;;;12.40;;
5890;SDS011;2971;52.420;7.080;2023-07-24T08:32:08;13.93;;;12.57;;
5890;SDS011;2971;52.420;7.080;2023-07-24T08:34:33;13.63;;;11.77;;
5890;SDS011;2971;52.420;7.080;2023-07-24T08:36:59;12.40;;;11.07;;
5890;SDS011;2971;52.420;7.080;2023-07-24T08:39:24;12.33;;;11.03;;
5890;SDS011;2971;52.420;7.080;2023-07-24T08:41:49;11.53;;;10.53;;
5890;SDS011;2971;52.420;7.080;2023-07-24T08:44:15;11.90;;;10.80;;
5890;SDS011;2971;52.420;7.080;2023-07-24T08:46:41;11.10;;;9.90;;
5890;SDS011;2971;52.420;7.080;2023-07-24T08:49:13;11.90;;;10.70;;
5890;SDS011;2971;52.420;7.080;2023-07-24T08:51:40;12.30;;;11.10;;
5890;SDS011;2971;52.420;7.080;2023-07-24T08:54:05;11.80;;;10.80;;
5890;SDS011;2971;52.420;7.080;2023-07-24T08:56:31;11.70;;;9.80;;
5890;SDS011;2971;52.420;7.080;2023-07-24T08:58:56;10.83;;;9.77;;
5890;SDS011;2971;52.420;7.080;2023-07-24T09:01:21;11.33;;;10.13;;
5890;SDS011;2971;52.420;7.080;2023-07-24T09:03:48;9.77;;;8.80;;
5890;SDS011;2971;52.420;7.080;2023-07-24T09:06:13;10.60;;;9.47;;
5890;SDS011;2971;52.420;7.080;2023-07-24T09:08:39;10.13;;;9.10;;
5890;SDS011;2971;52.420;7.080;2023-07-24T09:11:05;8.87;;;8.07;;
5890;SDS011;2971;52.420;7.080;2023-07-24T09:13:30;9.30;;;8.03;;
5890;SDS011;2971;52.420;7.080;2023-07-24T09:15:56;8.53;;;7.53;;
5890;SDS011;2971;52.420;7.080;2023-07-24T09:18:21;9.07;;;7.80;;
5890;SDS011;2971;52.420;7.080;2023-07-24T09:20:47;8.23;;;7.43;;
5890;SDS011;2971;52.420;7.080;2023-07-24T09:23:13;8.93;;;7.60;;
5890;SDS011;2971;52.420;7.080;2023-07-24T09:25:39;9.30;;;8.40;;
5890;SDS011;2971;52.420;7.080;2023-07-24T09:28:09;8.90;;;8.00;;
5890;SDS011;2971;52.420;7.080;2023-07-24T09:30:34;9.17;;;7.90;;
5890;SDS011;2971;52.420;7.080;2023-07-24T09:32:59;9.37;;;8.47;;
5890;SDS011;2971;52.420;7.080;2023-07-24T09:35:25;9.67;;;8.67;;
5890;SDS011;2971;52.420;7.080;2023-07-24T09:38:02;10.27;;;9.13;;
5890;SDS011;2971;52.420;7.080;2023-07-24T09:40:28;10.00;;;8.23;;
5890;SDS011;2971;52.420;7.080;2023-07-24T09:42:53;10.07;;;8.23;;
5890;SDS011;2971;52.420;7.080;2023-07-24T09:45:18;10.63;;;8.00;;
5890;SDS011;2971;52.420;7.080;2023-07-24T09:47:43;8.77;;;7.73;;
5890;SDS011;2971;52.420;7.080;2023-07-24T09:50:09;11.07;;;7.93;;
5890;SDS011;2971;52.420;7.080;2023-07-24T09:52:35;10.33;;;8.33;;
5890;SDS011;2971;52.420;7.080;2023-07-24T09:55:11;13.27;;;8.37;;
5890;SDS011;2971;52.420;7.080;2023-07-24T09:57:36;10.40;;;8.60;;
5890;SDS011;2971;52.420;7.080;2023-07-24T10:00:02;10.93;;;8.70;;
5890;SDS011;2971;52.420;7.080;2023-07-24T10:02:28;8.87;;;7.80;;
5890;SDS011;2971;52.420;7.080;2023-07-24T10:04:53;10.27;;;8.70;;
5890;SDS011;2971;52.420;7.080;2023-07-24T10:07:20;9.20;;;8.30;;
5890;SDS011;2971;52.420;7.080;2023-07-24T10:09:47;10.37;;;8.13;;
5890;SDS011;2971;52.420;7.080;2023-07-24T10:12:13;11.17;;;8.40;;
5890;SDS011;2971;52.420;7.080;2023-07-24T10:14:38;8.00;;;6.73;;
5890;SDS011;2971;52.420;7.080;2023-07-24T10:17:03;8.30;;;6.70;;
5890;SDS011;2971;52.420;7.080;2023-07-24T10:19:36;8.67;;;7.10;;
5890;SDS011;2971;52.420;7.080;2023-07-24T10:22:02;7.97;;;6.93;;
5890;SDS011;2971;52.420;7.080;2023-07-24T10:24:32;8.03;;;6.33;;
5890;SDS011;2971;52.420;7.080;2023-07-24T10:26:58;9.67;;;7.30;;
5890;SDS011;2971;52.420;7.080;2023-07-24T10:29:24;9.40;;;6.53;;
5890;SDS011;2971;52.420;7.080;2023-07-24T10:31:53;7.80;;;6.73;;
5890;SDS011;2971;52.420;7.080;2023-07-24T10:34:19;7.10;;;6.40;;
5890;SDS011;2971;52.420;7.080;2023-07-24T10:36:45;8.37;;;6.37;;
5890;SDS011;2971;52.420;7.080;2023-07-24T10:39:16;8.60;;;6.93;;
5890;SDS011;2971;52.420;7.080;2023-07-24T10:41:45;8.20;;;7.07;;
5890;SDS011;2971;52.420;7.080;2023-07-24T10:44:11;7.73;;;6.47;;
5890;SDS011;2971;52.420;7.080;2023-07-24T10:46:37;8.67;;;6.90;;
5890;SDS011;2971;52.420;7.080;2023-07-24T10:49:03;8.60;;;7.27;;
5890;SDS011;2971;52.420;7.080;2023-07-24T10:51:31;9.23;;;6.90;;
5890;SDS011;2971;52.420;7.080;2023-07-24T10:53:59;12.97;;;7.53;;
5890;SDS011;2971;52.420;7.080;2023-07-24T10:56:24;9.07;;;7.43;;
5890;SDS011;2971;52.420;7.080;2023-07-24T10:58:49;9.10;;;7.77;;
5890;SDS011;2971;52.420;7.080;2023-07-24T11:01:15;8.43;;;7.33;;
5890;SDS011;2971;52.420;7.080;2023-07-24T11:03:42;9.97;;;7.30;;
5890;SDS011;2971;52.420;7.080;2023-07-24T11:06:12;10.10;;;7.37;;
5890;SDS011;2971;52.420;7.080;2023-07-24T11:08:37;8.67;;;7.20;;
5890;SDS011;2971;52.420;7.080;2023-07-24T11:11:05;9.20;;;7.33;;
5890;SDS011;2971;52.420;7.080;2023-07-24T11:13:30;8.03;;;6.77;;
5890;SDS011;2971;52.420;7.080;2023-07-24T11:15:56;8.10;;;6.43;;
5890;SDS011;2971;52.420;7.080;2023-07-24T11:18:28;9.10;;;7.00;;
5890;SDS011;2971;52.420;7.080;2023-07-24T11:20:55;8.13;;;6.83;;
5890;SDS011;2971;52.420;7.080;2023-07-24T11:23:21;8.37;;;6.47;;
5890;SDS011;2971;52.420;7.080;2023-07-24T11:25:46;8.40;;;6.50;;
5890;SDS011;2971;52.420;7.080;2023-07-24T11:28:12;8.87;;;7.97;;
5890;SDS011;2971;52.420;7.080;2023-07-24T11:30:38;11.30;;;8.10;;
5890;SDS011;2971;52.420;7.080;2023-07-24T11:33:05;10.87;;;9.13;;
5890;SDS011;2971;52.420;7.080;2023-07-24T11:35:31;11.97;;;8.90;;
5890;SDS011;2971;52.420;7.080;2023-07-24T11:37:56;10.90;;;8.60;;
5890;SDS011;2971;52.420;7.080;2023-07-24T11:40:29;11.70;;;8.77;;
5890;SDS011;2971;52.420;7.080;2023-07-24T11:42:55;10.80;;;8.47;;
5890;SDS011;2971;52.420;7.080;2023-07-24T11:45:20;10.07;;;8.70;;
5890;SDS011;2971;52.420;7.080;2023-07-24T11:47:46;11.47;;;9.30;;
5890;SDS011;2971;52.420;7.080;2023-07-24T11:50:12;9.90;;;8.90;;
5890;SDS011;2971;52.420;7.080;2023-07-24T11:52:44;10.37;;;7.80;;
5890;SDS011;2971;52.420;7.080;2023-07-24T11:55:15;9.47;;;8.57;;
5890;SDS011;2971;52.420;7.080;2023-07-24T11:57:40;10.63;;;8.67;;
5890;SDS011;2971;52.420;7.080;2023-07-24T12:00:16;9.63;;;8.53;;
5890;SDS011;2971;52.420;7.080;2023-07-24T12:02:42;8.37;;;7.50;;
5890;SDS011;2971;52.420;7.080;2023-07-24T12:05:09;9.90;;;8.00;;
5890;SDS011;2971;52.420;7.080;2023-07-24T12:07:35;8.70;;;7.53;;
5890;SDS011;2971;52.420;7.080;2023-07-24T12:10:01;10.53;;;7.93;;
5890;SDS011;2971;52.420;7.080;2023-07-24T12:12:43;7.97;;;7.03;;
5890;SDS011;2971;52.420;7.080;2023-07-24T12:15:08;8.37;;;7.57;;
5890;SDS011;2971;52.420;7.080;2023-07-24T12:17:34;9.67;;;8.30;;
5890;SDS011;2971;52.420;7.080;2023-07-24T12:20:00;11.07;;;8.07;;
5890;SDS011;2971;52.420;7.080;2023-07-24T12:22:25;9.40;;;7.83;;
5890;SDS011;2971;52.420;7.080;2023-07-24T12:24:50;9.30;;;7.97;;
5890;SDS011;2971;52.420;7.080;2023-07-24T12:27:16;8.43;;;7.53;;
5890;SDS011;2971;52.420;7.080;2023-07-24T12:29:41;9.97;;;8.60;;
5890;SDS011;2971;52.420;7.080;2023-07-24T12:32:06;8.83;;;7.93;;
5890;SDS011;2971;52.420;7.080;2023-07-24T12:34:31;10.47;;;8.60;;
5890;SDS011;2971;52.420;7.080;2023-07-24T12:36:57;10.33;;;7.97;;
5890;SDS011;2971;52.420;7.080;2023-07-24T12:39:22;10.60;;;8.30;;
5890;SDS011;2971;52.420;7.080;2023-07-24T12:41:47;9.10;;;8.00;;
5890;SDS011;2971;52.420;7.080;2023-07-24T12:44:13;9.40;;;8.07;;
5890;SDS011;2971;52.420;7.080;2023-07-24T12:46:38;11.67;;;8.40;;
5890;SDS011;2971;52.420;7.080;2023-07-24T12:49:03;10.40;;;8.27;;
5890;SDS011;2971;52.420;7.080;2023-07-24T12:51:28;9.50;;;7.97;;
5890;SDS011;2971;52.420;7.080;2023-07-24T12:53:54;9.40;;;8.37;;
5890;SDS011;2971;52.420;7.080;2023-07-24T12:56:19;12.17;;;8.33;;
5890;SDS011;2971;52.420;7.080;2023-07-24T12:58:44;10.30;;;8.70;;
5890;SDS011;2971;52.420;7.080;2023-07-24T13:01:09;12.60;;;9.00;;
5890;SDS011;2971;52.420;7.080;2023-07-24T13:03:35;9.43;;;8.43;;
5890;SDS011;2971;52.420;7.080;2023-07-24T13:06:00;9.80;;;8.80;;
5890;SDS011;2971;52.420;7.080;2023-07-24T13:08:25;11.70;;;9.27;;
5890;SDS011;2971;52.420;7.080;2023-07-24T13:10:50;10.57;;;8.60;;
5890;SDS011;2971;52.420;7.080;2023-07-24T13:13:16;13.07;;;8.63;;
5890;SDS011;2971;52.420;7.080;2023-07-24T13:15:41;9.70;;;8.70;;
5890;SDS011;2971;52.420;7.080;2023-07-24T13:18:06;10.10;;;9.10;;
5890;SDS011;2971;52.420;7.080;2023-07-24T13:20:32;10.37;;;8.10;;
5890;SDS011;2971;52.420;7.080;2023-07-24T13:22:57;8.50;;;7.63;;
5890;SDS011;2971;52.420;7.080;2023-07-24T13:25:22;10.77;;;8.87;;
5890;SDS011;2971;52.420;7.080;2023-07-24T13:27:48;8.87;;;7.87;;
5890;SDS011;2971;52.420;7.080;2023-07-24T13:30:13;10.97;;;8.40;;
5890;SDS011;2971;52.420;7.080;2023-07-24T13:32:38;10.17;;;8.03;;
5890;SDS011;2971;52.420;7.080;2023-07-24T13:35:04;8.40;;;7.43;;
5890;SDS011;2971;52.420;7.080;2023-07-24T13:37:29;9.93;;;8.90;;
5890;SDS011;2971;52.420;7.080;2023-07-24T13:39:55;10.97;;;8.30;;
5890;SDS011;2971;52.420;7.080;2023-07-24T13:42:20;10.73;;;7.90;;
5890;SDS011;2971;52.420;7.080;2023-07-24T13:44:45;9.90;;;7.50;;
5890;SDS011;2971;52.420;7.080;2023-07-24T13:47:10;8.40;;;7.07;;
5890;SDS011;2971;52.420;7.080;2023-07-24T13:49:36;10.65;;;8.23;;
5890;SDS011;2971;52.420;7.080;2023-07-24T13:52:01;8.98;;;8.07;;
5890;SDS011;2971;52.420;7.080;2023-07-24T13:54:26;9.15;;;8.25;;
5890;SDS011;2971;52.420;7.080;2023-07-24T13:56:52;9.57;;;8.52;;
5890;SDS011;2971;52.420;7.080;2023-07-24T13:59:17;12.23;;;10.40;;
5890;SDS011;2971;52.420;7.080;2023-07-24T14:01:42;9.70;;;8.77;;
5890;SDS011;2971;52.420;7.080;2023-07-24T14:04:07;12.73;;;10.50;;
5890;SDS011;2971;52.420;7.080;2023-07-24T14:06:33;10.77;;;9.27;;
5890;SDS011;2971;52.420;7.080;2023-07-24T14:08:58;12.68;;;9.10;;
5890;SDS011;2971;52.420;7.080;2023-07-24T14:11:23;9.38;;;8.20;;
5890;SDS011;2971;52.420;7.080;2023-07-24T14:13:50;11.85;;;7.45;;
5890;SDS011;2971;52.420;7.080;2023-07-24T14:16:15;9.27;;;7.50;;
5890;SDS011;2971;52.420;7.080;2023-07-24T14:18:40;9.07;;;8.20;;
5890;SDS011;2971;52.420;7.080;2023-07-24T14:21:05;8.27;;;7.43;;
5890;SDS011;2971;52.420;7.080;2023-07-24T14:23:31;10.93;;;7.50;;
5890;SDS011;2971;52.420;7.080;2023-07-24T14:25:56;11.25;;;8.45;;
5890;SDS011;2971;52.420;7.080;2023-07-24T14:28:21;10.90;;;8.68;;
5890;SDS011;2971;52.420;7.080;2023-07-24T14:30:47;8.85;;;7.95;;
5890;SDS011;2971;52.420;7.080;2023-07-24T14:33:12;9.48;;;8.50;;
5890;SDS011;2971;52.420;7.080;2023-07-24T14:35:37;10.18;;;8.32;;
5890;SDS011;2971;52.420;7.080;2023-07-24T14:38:02;9.43;;;8.02;;
5890;SDS011;2971;52.420;7.080;2023-07-24T14:40:28;8.55;;;7.70;;
5890;SDS011;2971;52.420;7.080;2023-07-24T14:42:53;10.32;;;8.30;;
5890;SDS011;2971;52.420;7.080;2023-07-24T14:45:18;9.57;;;8.23;;
5890;SDS011;2971;52.420;7.080;2023-07-24T14:47:43;10.75;;;9.43;;
5890;SDS011;2971;52.420;7.080;2023-07-24T14:50:09;9.50;;;8.50;;
5890;SDS011;2971;52.420;7.080;2023-07-24T14:52:34;11.63;;;10.27;;
5890;SDS011;2971;52.420;7.080;2023-07-24T14:54:59;10.40;;;9.40;;
5890;SDS011;2971;52.420;7.080;2023-07-24T14:57:24;10.55;;;9.48;;
5890;SDS011;2971;52.420;7.080;2023-07-24T14:59:50;12.52;;;8.85;;